Time;durP1;ratioP1;P1;durP2;ratioP2;P2;SDS_P1;SDS_P2;PMS_P1;PMS_P2;Temp;Humidity;BMP_temperature;BMP_pressure;BME280_temperature;BME280_humidity;BME280_pressure;Samples;Min_cycle;Max_cycle;Signal;HPM_P1;HPM_P2
2022/09/26 00:01:06;;;;;;;3.30;2.20;;;;;;;16.61;50.83;98717.91;5054193;28;20115;-75
2022/09/26 00:03:32;;;;;;;2.80;2.40;;;;;;;16.60;51.00;98725.97;5053792;28;20029;-75
2022/09/26 00:06:02;;;;;;;4.47;2.63;;;;;;;16.61;51.03;98732.91;5070460;28;20028;-76
2022/09/26 00:08:28;;;;;;;3.63;2.55;;;;;;;16.57;50.98;98732.41;5053299;28;20060;-76
2022/09/26 00:10:57;;;;;;;3.15;2.60;;;;;;;16.54;50.99;98724.81;5053748;28;20131;-75
2022/09/26 00:13:24;;;;;;;4.68;2.40;;;;;;;16.50;50.81;98726.09;5053593;28;20131;-77
2022/09/26 00:15:49;;;;;;;4.90;2.30;;;;;;;16.52;50.91;98726.75;5053528;28;20044;-76
2022/09/26 00:18:15;;;;;;;6.85;2.65;;;;;;;16.50;51.00;98725.28;5053420;28;20035;-76
2022/09/26 00:20:40;;;;;;;3.80;2.50;;;;;;;16.48;50.84;98717.53;5053489;28;20503;-77
2022/09/26 00:23:06;;;;;;;3.63;2.80;;;;;;;16.46;50.96;98724.75;5054156;28;20153;-76
2022/09/26 00:25:31;;;;;;;3.38;2.65;;;;;;;16.46;50.86;98719.47;5053713;28;20408;-76
2022/09/26 00:27:57;;;;;;;4.07;2.45;;;;;;;16.42;50.79;98718.97;5037147;28;20142;-76
2022/09/26 00:30:22;;;;;;;3.13;2.58;;;;;;;16.40;50.76;98722.75;5053868;28;20080;-76
2022/09/26 00:32:48;;;;;;;3.17;2.60;;;;;;;16.35;50.96;98725.84;5054160;28;20454;-76
2022/09/26 00:35:13;;;;;;;3.20;2.42;;;;;;;16.35;51.26;98725.00;5053676;28;20028;-76
2022/09/26 00:37:39;;;;;;;3.55;2.65;;;;;;;16.30;51.08;98725.47;5037435;28;20048;-76
2022/09/26 00:40:05;;;;;;;5.95;2.70;;;;;;;16.31;51.00;98734.22;5070198;28;20036;-75
2022/09/26 00:42:31;;;;;;;2.80;2.45;;;;;;;16.24;51.12;98732.19;5053457;28;20442;-75
2022/09/26 00:44:56;;;;;;;4.97;2.88;;;;;;;16.25;51.20;98733.00;5037134;28;20047;-75
2022/09/26 00:47:24;;;;;;;5.53;2.92;;;;;;;16.26;51.11;98729.41;5053907;28;20456;-75
2022/09/26 00:49:52;;;;;;;3.72;2.90;;;;;;;16.21;51.53;98727.22;5056989;28;20419;-76
2022/09/26 00:52:25;;;;;;;3.08;2.67;;;;;;;16.20;51.14;98733.47;5040856;28;20047;-75
2022/09/26 00:54:51;;;;;;;6.20;2.72;;;;;;;16.19;51.24;98723.06;5041042;28;20047;-76
2022/09/26 00:57:32;;;;;;;5.90;2.97;;;;;;;16.18;51.33;98724.06;5040391;28;20797;-75
2022/09/26 01:00:00;;;;;;;3.45;2.58;;;;;;;16.15;51.23;98722.56;5041827;28;20040;-76
2022/09/26 01:02:29;;;;;;;4.78;2.63;;;;;;;16.14;51.03;98712.19;5073739;28;20499;-76
2022/09/26 01:04:55;;;;;;;;;;;;;;;16.15;51.20;98716.47;5074277;28;20472;-76
2022/09/26 01:07:22;;;;;;;3.28;2.63;;;;;;;16.06;51.24;98700.59;5056786;28;19908;-75
2022/09/26 01:09:47;;;;;;;3.85;2.60;;;;;;;16.05;51.16;98696.34;5040476;28;20033;-75
2022/09/26 01:12:13;;;;;;;3.53;2.75;;;;;;;16.07;51.32;98704.91;5057126;28;20032;-75
2022/09/26 01:14:39;;;;;;;4.28;2.72;;;;;;;16.08;50.99;98706.56;5056413;28;20032;-76
2022/09/26 01:17:04;;;;;;;4.07;2.63;;;;;;;16.08;50.97;98708.34;5040500;28;20025;-75
2022/09/26 01:19:45;;;;;;;4.10;2.67;;;;;;;16.07;50.93;98704.91;5056827;28;20504;-75
2022/09/26 01:22:29;;;;;;;5.80;2.88;;;;;;;16.06;50.95;98710.31;5074926;28;20026;-75
2022/09/26 01:25:20;;;;;;;3.38;2.60;;;;;;;16.04;50.87;98699.94;5073189;28;20032;-75
2022/09/26 01:28:30;;;;;;;3.83;2.80;;;;;;;16.02;50.85;98704.53;5074430;28;20081;-75
2022/09/26 01:31:14;;;;;;;4.55;3.00;;;;;;;16.01;50.79;98702.06;5065013;28;20047;-75
2022/09/26 01:33:55;;;;;;;4.43;3.08;;;;;;;15.98;50.71;98700.53;5074456;28;20415;-75
2022/09/26 01:36:33;;;;;;;3.20;2.80;;;;;;;15.98;50.61;98702.34;5039897;28;20097;-75
2022/09/26 01:39:23;;;;;;;8.05;3.35;;;;;;;15.97;50.52;98698.06;5073886;28;20516;-76
2022/09/26 01:42:07;;;;;;;4.18;2.97;;;;;;;15.97;50.40;98705.97;5072653;28;20032;-76
2022/09/26 01:44:46;;;;;;;4.53;2.95;;;;;;;15.94;50.51;98706.25;5074509;28;20027;-75
2022/09/26 01:47:47;;;;;;;4.70;2.97;;;;;;;15.86;50.69;98701.75;5056212;28;20027;-76
2022/09/26 01:50:26;;;;;;;3.92;2.92;;;;;;;15.88;50.74;98708.53;5042295;28;20029;-75
2022/09/26 01:53:05;;;;;;;5.05;2.90;;;;;;;15.83;50.62;98702.91;5056639;28;20036;-75
2022/09/26 01:55:40;;;;;;;4.90;2.83;;;;;;;15.83;50.96;98702.06;5072816;28;20506;-74
2022/09/26 01:58:14;;;;;;;3.92;2.83;;;;;;;15.74;50.96;98688.78;5055942;28;20033;-75
2022/09/26 02:00:41;;;;;;;5.30;3.30;;;;;;;15.76;50.99;98693.09;5055460;28;20059;-75
2022/09/26 02:03:11;;;;;;;4.93;3.03;;;;;;;15.72;50.92;98693.41;5056275;28;20032;-74
2022/09/26 02:06:01;;;;;;;5.15;2.75;;;;;;;15.69;51.06;98700.78;5056067;28;20051;-74
2022/09/26 02:08:29;;;;;;;4.63;2.95;;;;;;;15.69;51.38;98695.50;5037924;28;20087;-74
2022/09/26 02:11:00;;;;;;;7.60;2.90;;;;;;;15.61;51.41;98688.38;5054820;28;20082;-75
2022/09/26 02:13:30;;;;;;;4.00;2.70;;;;;;;15.59;51.39;98690.28;5055629;28;20029;-75
2022/09/26 02:15:57;;;;;;;3.28;2.80;;;;;;;15.59;51.53;98695.56;5037795;28;20058;-76
2022/09/26 02:18:29;;;;;;;3.30;2.50;;;;;;;15.61;51.46;98698.03;5038301;28;20101;-76
2022/09/26 02:21:02;;;;;;;3.22;2.72;;;;;;;15.52;51.82;98684.81;5038516;28;20060;-76
2022/09/26 02:23:28;;;;;;;5.07;2.40;;;;;;;15.51;51.70;98690.22;5038182;28;20039;-77
2022/09/26 02:25:53;;;;;;;5.25;3.10;;;;;;;15.53;51.90;98704.06;5054558;28;20044;-75
2022/09/26 02:28:20;;;;;;;5.95;2.95;;;;;;;15.47;51.85;98694.16;5037519;28;20111;-75
2022/09/26 02:30:46;;;;;;;5.43;2.78;;;;;;;15.43;51.85;98692.78;5054742;28;20431;-76
2022/09/26 02:33:11;;;;;;;4.30;2.90;;;;;;;15.44;52.02;98689.19;5037704;28;20045;-76
2022/09/26 02:35:56;;;;;;;3.20;2.55;;;;;;;15.43;52.07;98690.16;5054481;28;20123;-76
2022/09/26 02:38:23;;;;;;;4.88;2.85;;;;;;;15.44;52.12;98691.81;5056755;28;20070;-75
2022/09/26 02:41:10;;;;;;;5.20;2.97;;;;;;;15.43;52.25;98690.97;5037712;28;20036;-76
2022/09/26 02:44:02;;;;;;;4.18;2.90;;;;;;;15.40;52.16;98687.81;5070784;28;20102;-75
2022/09/26 02:46:42;;;;;;;3.72;3.00;;;;;;;15.37;52.04;98683.69;5069983;28;20131;-76
2022/09/26 02:49:15;;;;;;;4.18;2.85;;;;;;;15.38;51.94;98683.53;5071872;28;20120;-75
2022/09/26 02:52:12;;;;;;;5.47;4.18;;;;;;;15.30;52.16;98677.38;5055085;28;20518;-75
2022/09/26 02:55:11;;;;;;;4.60;3.78;;;;;;;15.32;52.15;98678.88;5071148;28;20040;-76
2022/09/26 02:57:39;;;;;;;3.90;3.35;;;;;;;15.30;52.13;98685.25;5072848;28;20054;-75
2022/09/26 03:00:12;;;;;;;4.50;3.10;;;;;;;15.23;52.11;98678.94;5071749;28;20032;-75
2022/09/26 03:02:46;;;;;;;4.57;3.30;;;;;;;15.19;52.22;98681.84;5055267;28;20035;-75
2022/09/26 03:05:20;;;;;;;4.03;3.15;;;;;;;15.16;52.15;98673.44;5038996;28;20056;-75
2022/09/26 03:08:04;;;;;;;4.28;3.40;;;;;;;15.20;52.37;98686.13;5055896;28;20505;-75
2022/09/26 03:10:29;;;;;;;3.97;3.03;;;;;;;15.18;52.25;98682.84;5071319;28;20499;-75
2022/09/26 03:12:56;;;;;;;2.97;2.65;;;;;;;15.17;52.33;98685.63;5054025;28;20102;-75
2022/09/26 03:15:22;;;;;;;6.93;3.20;;;;;;;15.12;52.34;98680.81;5054527;28;20131;-75
2022/09/26 03:17:50;;;;;;;4.03;2.88;;;;;;;15.15;52.13;98677.06;5071188;28;20115;-75
2022/09/26 03:20:17;;;;;;;4.65;2.92;;;;;;;15.13;52.28;98668.47;5054180;28;20044;-75
2022/09/26 03:22:43;;;;;;;4.63;2.72;;;;;;;15.11;52.58;98662.53;5037708;28;20028;-75
2022/09/26 03:25:10;;;;;;;6.45;3.10;;;;;;;15.09;52.58;98654.81;5054446;28;20033;-74
2022/09/26 03:27:36;;;;;;;4.00;2.97;;;;;;;15.08;52.57;98655.78;5054738;28;20029;-74
2022/09/26 03:30:02;;;;;;;4.07;2.92;;;;;;;15.06;52.42;98644.59;5037510;28;20485;-75
2022/09/26 03:32:28;;;;;;;3.80;2.90;;;;;;;15.07;52.59;98655.91;5054301;28;20173;-75
2022/09/26 03:34:53;;;;;;;3.38;2.80;;;;;;;15.00;52.61;98648.63;5070993;28;20430;-76
2022/09/26 03:37:19;;;;;;;5.63;2.90;;;;;;;15.01;52.76;98654.72;5070925;28;20025;-76
2022/09/26 03:39:44;;;;;;;4.18;3.10;;;;;;;15.04;52.56;98654.44;5054436;28;20032;-76
2022/09/26 03:42:10;;;;;;;3.80;3.05;;;;;;;15.04;52.48;98657.06;5070940;28;20403;-75
2022/09/26 03:44:35;;;;;;;3.58;3.17;;;;;;;15.03;52.62;98655.41;5037852;28;20499;-75
2022/09/26 03:47:02;;;;;;;5.25;3.40;;;;;;;15.02;52.69;98657.19;5054065;28;20047;-73
2022/09/26 03:49:27;;;;;;;4.57;3.33;;;;;;;15.05;52.64;98660.50;5054473;28;20470;-75
2022/09/26 03:51:53;;;;;;;5.07;3.03;;;;;;;15.02;52.30;98651.94;5038127;28;20123;-75
2022/09/26 03:54:18;;;;;;;4.43;3.30;;;;;;;15.07;52.33;98658.53;5037888;28;20037;-76
2022/09/26 03:56:44;;;;;;;3.80;3.10;;;;;;;15.05;52.45;98655.25;5037703;28;20043;-76
2022/09/26 03:59:10;;;;;;;4.93;3.20;;;;;;;15.09;52.43;98654.00;5054269;28;20395;-77
2022/09/26 04:01:35;;;;;;;4.28;3.45;;;;;;;15.07;52.53;98655.91;5037406;28;20032;-76
2022/09/26 04:04:01;;;;;;;4.65;3.35;;;;;;;15.06;52.58;98652.47;5053717;28;20119;-77
2022/09/26 04:06:26;;;;;;;3.95;3.28;;;;;;;15.04;52.66;98648.31;5054364;28;20036;-76
2022/09/26 04:08:52;;;;;;;3.80;3.00;;;;;;;15.09;52.55;98648.72;5070959;28;20021;-77
2022/09/26 04:11:21;;;;;;;5.90;3.38;;;;;;;15.09;52.89;98652.19;5071062;28;20044;-76
2022/09/26 04:13:47;;;;;;;10.13;3.25;;;;;;;15.12;52.52;98657.13;5037495;28;20032;-77
2022/09/26 04:16:13;;;;;;;4.95;3.03;;;;;;;15.14;52.59;98654.38;5054081;28;20098;-76
2022/09/26 04:18:38;;;;;;;5.55;3.00;;;;;;;15.16;52.40;98660.28;5070928;28;20029;-76
2022/09/26 04:21:05;;;;;;;8.35;3.30;;;;;;;15.36;51.80;98653.91;5054385;28;20033;-77
2022/09/26 04:23:32;;;;;;;4.45;3.30;;;;;;;15.98;50.37;98668.94;5056540;28;20060;-77
2022/09/26 04:26:09;;;;;;;6.53;3.42;;;;;;;16.73;48.78;98659.66;5058054;28;20119;-77
2022/09/26 04:28:35;;;;;;;4.75;3.30;;;;;;;17.10;47.61;98646.16;5058049;28;20028;-78
2022/09/26 04:31:01;;;;;;;4.15;3.00;;;;;;;17.49;46.60;98644.72;5057460;28;20105;-77
2022/09/26 04:33:28;;;;;;;4.72;3.22;;;;;;;18.12;45.08;98656.44;5058422;28;20068;-77
2022/09/26 04:35:54;;;;;;;3.45;2.72;;;;;;;18.04;45.18;98651.19;5041359;28;20032;-76
2022/09/26 04:38:19;;;;;;;6.72;2.95;;;;;;;17.76;45.76;98664.72;5057860;28;20064;-76
2022/09/26 04:40:45;;;;;;;7.50;2.95;;;;;;;17.65;45.96;98654.50;5057478;28;20032;-77
2022/09/26 04:43:11;;;;;;;4.68;2.95;;;;;;;17.62;46.04;98658.28;5057030;28;20045;-76
2022/09/26 04:45:40;;;;;;;5.43;2.80;;;;;;;17.47;46.48;98659.91;5074279;28;20028;-76
2022/09/26 04:48:06;;;;;;;6.75;2.88;;;;;;;17.41;46.68;98657.91;5057919;28;20040;-77
2022/09/26 04:50:32;;;;;;;4.78;3.05;;;;;;;17.39;46.91;98670.44;5041114;28;20036;-76
2022/09/26 04:52:59;;;;;;;4.35;2.88;;;;;;;17.17;47.13;98649.81;5074195;28;20082;-77
2022/09/26 04:55:25;;;;;;;4.00;2.90;;;;;;;17.26;47.25;98660.38;5041053;28;20505;-75
2022/09/26 04:57:50;;;;;;;3.80;2.80;;;;;;;17.22;47.52;98667.78;5057191;28;20033;-76
2022/09/26 05:00:17;;;;;;;5.35;2.92;;;;;;;17.21;48.66;98668.75;5057044;28;20021;-75
2022/09/26 05:02:48;;;;;;;9.07;2.78;;;;;;;17.29;49.15;98671.41;5044855;28;20024;-78
2022/09/26 05:05:14;;;;;;;7.55;3.00;;;;;;;17.34;48.59;98670.94;5057891;28;20407;-75
2022/09/26 05:07:43;;;;;;;6.03;3.13;;;;;;;17.30;48.63;98669.59;5040263;28;20047;-74
2022/09/26 05:10:09;;;;;;;4.65;3.28;;;;;;;17.24;48.55;98660.53;5073733;28;20114;-71
2022/09/26 05:12:38;;;;;;;7.03;3.38;;;;;;;17.27;48.71;98664.66;5073750;28;20055;-69
2022/09/26 05:15:07;;;;;;;;;;;;;;;17.31;48.73;98665.97;5073781;28;20056;-69
2022/09/26 05:17:36;;;;;;;4.38;2.90;;;;;;;17.45;51.01;98665.34;5066710;28;19920;-70
2022/09/26 05:20:07;;;;;;;4.45;2.83;;;;;;;17.53;49.55;98675.09;5045397;28;20094;-71
2022/09/26 05:22:32;;;;;;;7.20;3.38;;;;;;;17.58;49.59;98677.22;5031507;28;20032;-73
2022/09/26 05:27:42;;;;;;;32.15;4.38;;;;;;;17.57;49.89;98668.50;5052901;28;20073;-72
2022/09/26 05:30:08;;;;;;;20.88;4.20;;;;;;;17.62;48.85;98665.38;5045669;28;20028;-68
2022/09/26 05:32:33;;;;;;;13.27;4.63;;;;;;;17.69;48.13;98671.63;5060589;28;20413;-70
2022/09/26 05:34:59;;;;;;;13.65;4.35;;;;;;;18.05;47.30;98673.97;5044948;28;20028;-70
2022/09/26 05:37:24;;;;;;;7.72;3.83;;;;;;;19.42;44.70;98668.53;5061250;28;20528;-74
2022/09/26 05:42:34;;;;;;;14.65;4.05;;;;;;;21.45;40.70;98657.78;5048192;28;20109;-74
2022/09/26 05:45:02;;;;;;;10.00;3.50;;;;;;;22.36;38.30;98665.16;5035454;28;20119;-74
2022/09/26 05:47:31;;;;;;;8.50;3.30;;;;;;;23.19;36.57;98664.31;5030038;28;20029;-73
2022/09/26 05:49:56;;;;;;;6.75;3.30;;;;;;;23.54;35.80;98672.19;5043974;28;20558;-72
2022/09/26 05:52:22;;;;;;;9.38;3.75;;;;;;;24.05;34.09;98676.13;5044280;28;20032;-75
2022/09/26 05:54:48;;;;;;;15.55;4.05;;;;;;;24.62;33.10;98673.00;5052332;28;20017;-72
2022/09/26 05:57:14;;;;;;;13.20;4.47;;;;;;;24.99;32.34;98668.78;5059994;28;20044;-77
2022/09/26 05:59:39;;;;;;;23.35;5.57;;;;;;;25.59;31.91;98663.13;5030259;28;20214;-76
2022/09/26 06:02:05;;;;;;;17.98;5.03;;;;;;;25.72;31.86;98661.38;5044009;28;20037;-73
2022/09/26 06:04:31;;;;;;;15.50;4.68;;;;;;;26.60;31.36;98663.06;5030475;28;20835;-78
2022/09/26 06:06:56;;;;;;;12.07;4.30;;;;;;;27.42;29.80;98660.03;5059649;28;20102;-76
2022/09/26 06:09:22;;;;;;;14.80;4.88;;;;;;;27.70;29.20;98661.25;5059974;28;20400;-75
2022/09/26 06:11:47;;;;;;;13.60;4.82;;;;;;;28.06;28.25;98655.97;5062641;28;20043;-73
2022/09/26 06:14:13;;;;;;;12.38;4.93;;;;;;;28.64;27.46;98663.16;5028447;28;20044;-76
2022/09/26 06:16:39;;;;;;;14.48;4.35;;;;;;;29.14;26.83;98650.97;5025864;28;20087;-72
2022/09/26 06:19:04;;;;;;;11.40;3.60;;;;;;;29.67;25.86;98656.25;5028651;28;20036;-74
2022/09/26 06:21:30;;;;;;;13.00;3.78;;;;;;;30.12;25.18;98661.53;5057259;28;20051;-75
2022/09/26 06:23:55;;;;;;;92.03;14.27;;;;;;;30.42;24.49;98651.47;5044742;28;20028;-75
2022/09/26 06:26:22;;;;;;;62.88;10.73;;;;;;;30.85;24.01;98647.16;5026937;28;20120;-75
2022/09/26 06:28:50;;;;;;;44.95;8.18;;;;;;;31.19;23.72;98655.94;5051577;28;20052;-76
2022/09/26 06:31:17;;;;;;;29.52;6.05;;;;;;;31.54;22.23;98656.56;5044114;28;20032;-74
2022/09/26 06:33:42;;;;;;;18.00;5.60;;;;;;;31.00;22.39;98657.34;5032036;28;20047;-73
2022/09/26 06:36:09;;;;;;;13.32;3.70;;;;;;;31.24;21.95;98651.66;5058448;28;20032;-74
2022/09/26 06:38:35;;;;;;;15.75;4.60;;;;;;;31.49;21.41;98657.28;5028243;28;20016;-74
2022/09/26 06:41:01;;;;;;;13.82;4.07;;;;;;;31.39;21.62;98633.75;5042302;28;20056;-73
2022/09/26 06:43:26;;;;;;;9.77;3.80;;;;;;;31.72;21.27;98641.84;5042891;28;20012;-73
2022/09/26 06:45:52;;;;;;;17.38;3.80;;;;;;;32.13;20.95;98646.78;5044578;28;20048;-74
2022/09/26 06:48:18;;;;;;;21.48;4.22;;;;;;;32.52;20.38;98644.56;5051544;28;20028;-73
2022/09/26 06:50:43;;;;;;;11.07;3.67;;;;;;;32.84;19.91;98649.03;5044020;28;20121;-74
2022/09/26 06:53:09;;;;;;;18.38;4.38;;;;;;;32.95;19.78;98647.97;5030872;28;20125;-72
2022/09/26 06:55:35;;;;;;;19.33;6.05;;;;;;;32.42;19.86;98653.44;5017422;28;20411;-71
2022/09/26 06:58:00;;;;;;;71.57;8.32;;;;;;;31.32;20.50;98648.50;5034616;28;20100;-71
2022/09/26 07:00:28;;;;;;;46.03;7.85;;;;;;;31.17;20.68;98647.28;5050053;28;20049;-72
2022/09/26 07:02:55;;;;;;;;;;;;;;;30.67;21.12;98648.31;5035358;28;20025;-72
2022/09/26 07:05:21;;;;;;;36.87;8.77;;;;;;;29.94;21.86;98640.28;5035347;28;19913;-71
2022/09/26 07:07:47;;;;;;;36.75;8.65;;;;;;;29.65;22.58;98651.09;5034444;28;20271;-71
2022/09/26 07:10:14;;;;;;;76.93;11.38;;;;;;;30.31;22.13;98648.63;5051439;28;20040;-71
2022/09/26 07:12:43;;;;;;;49.05;10.90;;;;;;;30.89;21.02;98642.91;5034946;28;20023;-71
2022/09/26 07:15:12;;;;;;;36.00;13.50;;;;;;;31.45;21.00;98652.66;5035108;28;20041;-70
2022/09/26 07:17:41;;;;;;;48.13;15.77;;;;;;;32.22;20.21;98664.91;5018809;28;20067;-72
2022/09/26 07:20:11;;;;;;;43.60;15.00;;;;;;;33.08;18.81;98676.41;5034672;28;20036;-71
2022/09/26 07:22:36;;;;;;;41.55;12.35;;;;;;;33.81;18.30;98666.53;5034562;28;20064;-71
2022/09/26 07:25:02;;;;;;;32.92;10.77;;;;;;;34.82;17.40;98672.03;5034710;28;20064;-72
2022/09/26 07:27:28;;;;;;;31.73;8.57;;;;;;;35.69;16.44;98657.13;5034889;28;20029;-72
2022/09/26 07:29:55;;;;;;;22.77;7.38;;;;;;;36.32;15.51;98647.34;5018020;28;20060;-72
2022/09/26 07:32:21;;;;;;;26.58;6.57;;;;;;;36.80;15.03;98655.50;5034829;28;20036;-71
2022/09/26 07:34:47;;;;;;;13.73;5.03;;;;;;;36.75;14.90;98658.25;5018042;28;20036;-71
2022/09/26 07:37:13;;;;;;;10.90;3.95;;;;;;;36.28;15.41;98649.00;5018039;28;20408;-73
2022/09/26 07:39:38;;;;;;;10.35;3.47;;;;;;;35.78;15.99;98649.22;5018046;28;20025;-72
2022/09/26 07:42:04;;;;;;;7.88;3.15;;;;;;;35.40;16.64;98641.59;5017741;28;20044;-73
2022/09/26 07:44:30;;;;;;;10.20;2.97;;;;;;;35.08;16.77;98631.22;5034101;28;20033;-71
2022/09/26 07:52:23;;;;;;;18.13;4.10;;;;;;;34.75;17.30;98628.16;5051041;28;20110;-71
2022/09/26 07:54:48;;;;;;;20.40;6.30;;;;;;;34.64;17.51;98626.56;5034764;28;20484;-71
2022/09/26 07:57:14;;;;;;;22.70;7.65;;;;;;;34.58;17.69;98631.97;5034640;28;20032;-72
2022/09/26 07:59:40;;;;;;;21.33;8.38;;;;;;;34.35;18.18;98627.19;5038625;28;20036;-70
2022/09/26 08:02:05;;;;;;;36.55;8.63;;;;;;;34.52;17.80;98619.56;5038316;28;20495;-70
2022/09/26 08:04:31;;;;;;;28.40;9.95;;;;;;;34.71;17.42;98627.88;5021857;28;20072;-71
2022/09/26 08:06:58;;;;;;;26.55;9.27;;;;;;;34.99;17.26;98619.34;5038135;28;20090;-71
2022/09/26 08:09:23;;;;;;;29.90;9.55;;;;;;;35.05;16.86;98621.75;5038124;28;20090;-71
2022/09/26 08:11:49;;;;;;;25.33;9.27;;;;;;;34.93;17.20;98624.81;5021808;28;20033;-71
2022/09/26 08:14:14;;;;;;;28.60;8.60;;;;;;;34.77;17.00;98621.34;5037893;28;20086;-72
2022/09/26 08:16:40;;;;;;;22.90;8.13;;;;;;;34.55;17.56;98615.47;5037606;28;20057;-69
2022/09/26 08:19:07;;;;;;;23.48;8.23;;;;;;;34.54;17.73;98622.00;5034426;28;20033;-70
2022/09/26 08:21:33;;;;;;;20.02;7.57;;;;;;;33.90;18.35;98613.47;5055274;28;20033;-74
2022/09/26 08:23:58;;;;;;;19.80;7.70;;;;;;;33.83;18.31;98627.28;5037045;28;20478;-71
2022/09/26 08:26:24;;;;;;;20.65;9.23;;;;;;;34.03;18.17;98618.34;5053360;28;20412;-71
2022/09/26 08:28:49;;;;;;;24.13;8.57;;;;;;;33.51;18.66;98619.41;5021058;28;20658;-70
2022/09/26 08:31:16;;;;;;;28.55;7.40;;;;;;;33.92;18.81;98619.41;5036850;28;20407;-70
2022/09/26 08:33:42;;;;;;;15.02;5.18;;;;;;;34.01;18.38;98625.91;5053499;28;20171;-70
2022/09/26 08:36:12;;;;;;;9.23;4.32;;;;;;;34.19;18.79;98605.56;5053405;28;20029;-70
2022/09/26 08:38:38;;;;;;;13.77;4.47;;;;;;;34.31;18.26;98604.47;5020144;28;20037;-69
2022/09/26 08:41:21;;;;;;;12.27;4.20;;;;;;;34.40;18.35;98606.31;5037168;28;20389;-70
2022/09/26 08:43:59;;;;;;;9.65;3.70;;;;;;;34.53;17.83;98604.91;5070264;28;20116;-71
2022/09/26 08:49:38;;;;;;;10.73;2.80;;;;;;;34.65;17.48;98599.19;5053618;28;20132;-71
2022/09/26 08:52:06;;;;;;;6.60;2.70;;;;;;;34.30;17.76;98595.53;5054857;28;20028;-70
2022/09/26 08:54:41;;;;;;;5.07;2.75;;;;;;;34.50;17.77;98582.97;5036375;28;20033;-72
2022/09/26 08:57:37;;;;;;;8.15;2.60;;;;;;;34.43;17.94;98570.53;5054435;28;20028;-73
2022/09/26 09:00:23;;;;;;;12.00;3.10;;;;;;;34.24;18.08;98564.13;5054041;28;20070;-72
2022/09/26 09:02:51;;;;;;;9.90;3.72;;;;;;;33.94;17.99;98576.66;5019957;28;20064;-70
2022/09/26 09:05:22;;;;;;;12.75;3.20;;;;;;;33.29;18.47;98579.09;5036512;28;20124;-70
2022/09/26 09:07:48;;;;;;;7.88;2.65;;;;;;;33.07;18.92;98565.84;5036579;28;20047;-71
2022/09/26 09:10:16;;;;;;;9.02;2.42;;;;;;;32.79;19.85;98568.72;5036545;28;20476;-71
2022/09/26 09:12:53;;;;;;;18.27;3.25;;;;;;;32.35;20.30;98562.91;5036618;28;20041;-72
2022/09/26 09:15:19;;;;;;;16.05;4.60;;;;;;;31.97;20.51;98571.06;5053389;28;20049;-71
2022/09/26 09:18:05;;;;;;;15.25;3.60;;;;;;;32.17;20.45;98564.19;5072271;28;20102;-71
2022/09/26 09:20:52;;;;;;;11.33;2.73;;;;;;;32.17;19.75;98572.28;5073080;28;20055;-72
2022/09/26 09:23:36;;;;;;;10.43;2.90;;;;;;;32.47;19.70;98563.50;5062318;28;20289;-70
2022/09/26 09:26:07;;;;;;;8.57;2.65;;;;;;;33.00;19.28;98553.38;5052784;28;20029;-70
2022/09/26 09:29:08;;;;;;;8.80;2.42;;;;;;;33.31;19.28;98542.59;5036211;28;20033;-71
2022/09/26 09:31:36;;;;;;;9.07;2.42;;;;;;;33.43;19.06;98533.38;5051392;28;20048;-72
2022/09/26 09:34:04;;;;;;;9.02;2.85;;;;;;;33.66;18.58;98540.94;5035299;28;20102;-71
2022/09/26 09:36:37;;;;;;;10.50;3.42;;;;;;;33.79;18.17;98536.06;5034659;28;20539;-72
2022/09/26 09:39:05;;;;;;;13.40;3.15;;;;;;;33.94;18.72;98532.50;5018415;28;20036;-75
2022/09/26 09:41:33;;;;;;;;;;;;;;;34.04;18.97;98527.06;5018484;28;20585;-80
2022/09/26 09:44:01;;;;;;;11.98;3.88;;;;;;;33.68;19.43;98521.72;5034877;28;19912;-73
2022/09/26 09:46:30;;;;;;;11.95;3.72;;;;;;;33.27;19.07;98525.31;5017952;28;20432;-76
2022/09/26 09:49:01;;;;;;;9.50;3.30;;;;;;;32.97;19.76;98526.06;5018410;28;20028;-77
2022/09/26 09:51:51;;;;;;;16.02;3.58;;;;;;;32.79;19.88;98516.59;5018383;28;20037;-80
2022/09/26 09:54:50;;;;;;;8.40;3.78;;;;;;;32.72;20.09;98524.13;5034208;28;20029;-73
2022/09/26 09:57:29;;;;;;;9.38;3.70;;;;;;;32.83;19.95;98514.97;5034574;28;20060;-75
2022/09/26 09:59:58;;;;;;;7.88;4.03;;;;;;;32.83;19.99;98509.56;5033933;28;20107;-74
2022/09/26 10:03:01;;;;;;;17.73;4.15;;;;;;;32.80;19.90;98518.22;5017945;28;20051;-74
2022/09/26 10:05:41;;;;;;;11.13;4.28;;;;;;;32.81;19.91;98523.34;5050782;28;20025;-75
2022/09/26 10:08:16;;;;;;;11.10;3.72;;;;;;;32.68;19.95;98529.25;5038978;28;20059;-75
2022/09/26 10:11:16;;;;;;;8.50;3.42;;;;;;;32.55;20.14;98524.34;5019274;28;20432;-74
2022/09/26 10:13:42;;;;;;;9.38;3.40;;;;;;;32.45;20.67;98525.09;5051534;28;20186;-73
2022/09/26 10:16:13;;;;;;;6.57;3.25;;;;;;;32.38;20.88;98503.75;5018648;28;20500;-74
2022/09/26 10:19:03;;;;;;;8.57;3.60;;;;;;;32.22;20.76;98500.19;5065100;28;20111;-76
2022/09/26 10:21:42;;;;;;;9.48;2.97;;;;;;;32.07;20.98;98506.34;5054335;28;20462;-75
2022/09/26 10:24:21;;;;;;;7.97;3.22;;;;;;;32.04;21.27;98495.22;5054947;28;20105;-75
2022/09/26 10:26:48;;;;;;;10.63;3.03;;;;;;;32.01;21.32;98490.38;5054761;28;20068;-76
2022/09/26 10:29:32;;;;;;;7.70;3.00;;;;;;;31.97;21.07;98483.88;5071702;28;20028;-75
2022/09/26 10:31:59;;;;;;;6.47;2.97;;;;;;;31.84;20.74;98493.25;5056420;28;20037;-77
2022/09/26 10:34:29;;;;;;;9.52;3.20;;;;;;;31.55;21.08;98499.84;5038061;28;20027;-75
2022/09/26 10:36:55;;;;;;;6.57;3.10;;;;;;;31.34;21.75;98487.25;5038306;28;20036;-75
2022/09/26 10:42:21;;;;;;;7.55;3.08;;;;;;;31.26;21.29;98485.03;5037649;28;20055;-73
2022/09/26 10:44:48;;;;;;;7.97;3.17;;;;;;;31.11;21.85;98474.97;5035593;28;20021;-75
2022/09/26 10:47:22;;;;;;;7.80;2.97;;;;;;;30.90;21.41;98476.63;5034625;28;20024;-75
2022/09/26 10:50:00;;;;;;;8.52;2.95;;;;;;;30.71;22.37;98462.72;5018177;28;20029;-75
2022/09/26 10:52:33;;;;;;;11.18;2.92;;;;;;;30.65;22.13;98468.06;5050928;28;20028;-74
2022/09/26 10:55:05;;;;;;;5.07;3.13;;;;;;;30.59;22.66;98465.59;5035012;28;20033;-74
2022/09/26 10:57:48;;;;;;;4.35;2.58;;;;;;;30.46;22.71;98464.13;5051875;28;20033;-75
2022/09/26 11:00:17;;;;;;;6.15;2.70;;;;;;;30.31;22.99;98454.78;5017487;28;20491;-75
2022/09/26 11:02:45;;;;;;;10.18;2.67;;;;;;;30.16;22.99;98437.63;5017945;28;20028;-74
2022/09/26 11:07:57;;;;;;;9.77;2.60;;;;;;;29.96;23.32;98449.78;5037843;28;20090;-77
2022/09/26 11:10:24;;;;;;;7.88;2.90;;;;;;;29.85;23.14;98438.09;5050352;28;20021;-78
2022/09/26 11:13:01;;;;;;;7.78;2.40;;;;;;;29.73;22.38;98424.75;5034179;28;20051;-75
2022/09/26 11:15:27;;;;;;;8.73;2.47;;;;;;;29.62;22.52;98423.00;5050140;28;20057;-74
2022/09/26 11:17:54;;;;;;;7.45;2.53;;;;;;;29.52;22.75;98438.97;5058883;28;20040;-76
2022/09/26 11:20:38;;;;;;;6.40;2.63;;;;;;;29.38;23.13;98433.13;5037326;28;20116;-76
2022/09/26 11:23:22;;;;;;;6.03;2.50;;;;;;;29.21;23.79;98431.28;5070343;28;20121;-76
2022/09/26 11:25:58;;;;;;;6.60;2.60;;;;;;;29.15;23.75;98436.81;5070356;28;20060;-75
2022/09/26 11:28:35;;;;;;;9.20;2.90;;;;;;;29.05;23.10;98427.53;5070102;28;20071;-76
2022/09/26 11:31:08;;;;;;;9.68;2.33;;;;;;;29.09;24.74;98421.66;5038145;28;20800;-79
2022/09/26 11:33:35;;;;;;;9.02;3.13;;;;;;;28.84;24.47;98425.56;5053635;28;20036;-78
2022/09/26 11:36:22;;;;;;;7.13;2.90;;;;;;;28.70;24.22;98422.38;5038877;28;20035;-79
2022/09/26 11:38:55;;;;;;;6.75;3.05;;;;;;;28.60;23.86;98416.84;5070899;28;20128;-80
2022/09/26 11:41:37;;;;;;;7.25;2.92;;;;;;;28.66;24.39;98416.69;5038030;28;20032;-81
2022/09/26 11:44:24;;;;;;;6.30;3.20;;;;;;;28.65;25.63;98409.69;5054084;28;20032;-79
2022/09/26 11:47:17;;;;;;;11.93;3.20;;;;;;;28.76;25.08;98410.66;5072297;28;20060;-78
2022/09/26 11:50:13;;;;;;;9.65;3.60;;;;;;;28.61;25.00;98392.44;5072381;28;20051;-81
2022/09/26 11:52:53;;;;;;;6.55;3.40;;;;;;;28.55;25.77;98395.25;5069017;28;20407;-78
2022/09/26 11:55:49;;;;;;;11.23;3.83;;;;;;;28.43;25.77;98382.72;5050757;28;20075;-77
2022/09/26 11:58:23;;;;;;;7.72;3.33;;;;;;;28.46;25.73;98386.78;5051285;28;20514;-80
2022/09/26 12:01:04;;;;;;;6.75;3.00;;;;;;;28.38;25.69;98385.28;5033312;28;20511;-77
2022/09/26 12:03:48;;;;;;;9.50;3.55;;;;;;;28.23;26.10;98377.78;5034343;28;20048;-81
2022/09/26 12:06:20;;;;;;;7.55;3.22;;;;;;;28.08;26.46;98377.50;5049932;28;20033;-78
2022/09/26 12:09:09;;;;;;;5.47;3.00;;;;;;;27.82;26.09;98384.19;5049311;28;20029;-75